sensor_id;sensor_type;location;lat;lon;timestamp;P1;durP1;ratioP1;P2;durP2;ratioP2
44842;SDS011;31884;52.538;13.820;2022-12-07T00:00:42;6.22;;;4.05;;
44842;SDS011;31884;52.538;13.820;2022-12-07T00:03:07;4.70;;;3.63;;
44842;SDS011;31884;52.538;13.820;2022-12-07T00:05:33;4.93;;;3.30;;
44842;SDS011;31884;52.538;13.820;2022-12-07T00:07:58;5.70;;;3.28;;
44842;SDS011;31884;52.538;13.820;2022-12-07T00:10:23;4.30;;;2.85;;
44842;SDS011;31884;52.538;13.820;2022-12-07T00:12:49;5.75;;;3.42;;
44842;SDS011;31884;52.538;13.820;2022-12-07T00:15:15;5.43;;;3.83;;
44842;SDS011;31884;52.538;13.820;2022-12-07T00:17:40;4.85;;;3.42;;
44842;SDS011;31884;52.538;13.820;2022-12-07T00:20:06;5.63;;;3.53;;
44842;SDS011;31884;52.538;13.820;2022-12-07T00:22:32;6.90;;;4.07;;
44842;SDS011;31884;52.538;13.820;2022-12-07T00:24:57;8.02;;;4.80;;
44842;SDS011;31884;52.538;13.820;2022-12-07T00:27:23;7.65;;;4.43;;
44842;SDS011;31884;52.538;13.820;2022-12-07T00:29:48;8.25;;;4.85;;
44842;SDS011;31884;52.538;13.820;2022-12-07T00:32:14;9.52;;;5.75;;
44842;SDS011;31884;52.538;13.820;2022-12-07T00:34:39;13.95;;;7.80;;
44842;SDS011;31884;52.538;13.820;2022-12-07T00:37:05;11.38;;;6.68;;
44842;SDS011;31884;52.538;13.820;2022-12-07T00:39:30;12.80;;;6.72;;
44842;SDS011;31884;52.538;13.820;2022-12-07T00:41:56;13.15;;;7.22;;
44842;SDS011;31884;52.538;13.820;2022-12-07T00:44:22;13.40;;;7.40;;
44842;SDS011;31884;52.538;13.820;2022-12-07T00:46:47;15.25;;;8.48;;
44842;SDS011;31884;52.538;13.820;2022-12-07T00:49:13;17.40;;;8.25;;
44842;SDS011;31884;52.538;13.820;2022-12-07T00:51:38;14.77;;;7.75;;
44842;SDS011;31884;52.538;13.820;2022-12-07T00:54:04;12.15;;;7.72;;
44842;SDS011;31884;52.538;13.820;2022-12-07T00:56:29;15.40;;;7.55;;
44842;SDS011;31884;52.538;13.820;2022-12-07T00:58:56;14.73;;;7.57;;
44842;SDS011;31884;52.538;13.820;2022-12-07T01:01:24;13.88;;;7.50;;
44842;SDS011;31884;52.538;13.820;2022-12-07T01:03:52;14.05;;;7.60;;
44842;SDS011;31884;52.538;13.820;2022-12-07T01:06:19;15.77;;;7.18;;
44842;SDS011;31884;52.538;13.820;2022-12-07T01:08:45;14.02;;;7.22;;
44842;SDS011;31884;52.538;13.820;2022-12-07T01:11:12;14.02;;;7.82;;
44842;SDS011;31884;52.538;13.820;2022-12-07T01:13:39;13.10;;;6.70;;
44842;SDS011;31884;52.538;13.820;2022-12-07T01:16:05;12.60;;;7.70;;
44842;SDS011;31884;52.538;13.820;2022-12-07T01:18:32;15.73;;;7.95;;
44842;SDS011;31884;52.538;13.820;2022-12-07T01:21:06;11.88;;;6.57;;
44842;SDS011;31884;52.538;13.820;2022-12-07T01:23:35;11.75;;;6.72;;
44842;SDS011;31884;52.538;13.820;2022-12-07T01:26:02;11.40;;;6.15;;
44842;SDS011;31884;52.538;13.820;2022-12-07T01:28:29;13.65;;;6.88;;
44842;SDS011;31884;52.538;13.820;2022-12-07T01:31:05;10.73;;;5.75;;
44842;SDS011;31884;52.538;13.820;2022-12-07T01:33:34;9.60;;;5.72;;
44842;SDS011;31884;52.538;13.820;2022-12-07T01:36:01;12.20;;;6.22;;
44842;SDS011;31884;52.538;13.820;2022-12-07T01:38:31;11.27;;;6.72;;
44842;SDS011;31884;52.538;13.820;2022-12-07T01:40:57;12.48;;;6.60;;
44842;SDS011;31884;52.538;13.820;2022-12-07T01:43:24;10.85;;;5.90;;
44842;SDS011;31884;52.538;13.820;2022-12-07T01:45:52;16.48;;;7.00;;
44842;SDS011;31884;52.538;13.820;2022-12-07T01:48:18;11.95;;;6.53;;
44842;SDS011;31884;52.538;13.820;2022-12-07T01:50:50;9.82;;;5.93;;
44842;SDS011;31884;52.538;13.820;2022-12-07T01:53:18;11.18;;;6.05;;
44842;SDS011;31884;52.538;13.820;2022-12-07T01:55:45;10.55;;;6.30;;
44842;SDS011;31884;52.538;13.820;2022-12-07T01:58:12;8.38;;;5.25;;
44842;SDS011;31884;52.538;13.820;2022-12-07T02:00:39;13.43;;;6.55;;
44842;SDS011;31884;52.538;13.820;2022-12-07T02:03:11;12.63;;;6.93;;
44842;SDS011;31884;52.538;13.820;2022-12-07T02:05:43;10.95;;;5.03;;
44842;SDS011;31884;52.538;13.820;2022-12-07T02:08:09;11.55;;;5.97;;
44842;SDS011;31884;52.538;13.820;2022-12-07T02:10:36;11.63;;;6.47;;
44842;SDS011;31884;52.538;13.820;2022-12-07T02:13:10;11.80;;;5.97;;
44842;SDS011;31884;52.538;13.820;2022-12-07T02:15:44;10.88;;;6.22;;
44842;SDS011;31884;52.538;13.820;2022-12-07T02:21:39;8.35;;;4.97;;
44842;SDS011;31884;52.538;13.820;2022-12-07T02:27:18;10.55;;;5.30;;
44842;SDS011;31884;52.538;13.820;2022-12-07T02:30:08;13.82;;;6.95;;
44842;SDS011;31884;52.538;13.820;2022-12-07T02:40:48;11.30;;;5.60;;
44842;SDS011;31884;52.538;13.820;2022-12-07T02:43:24;11.93;;;6.43;;
44842;SDS011;31884;52.538;13.820;2022-12-07T02:45:57;10.57;;;5.47;;
44842;SDS011;31884;52.538;13.820;2022-12-07T02:48:27;11.18;;;6.20;;
44842;SDS011;31884;52.538;13.820;2022-12-07T02:50:55;10.52;;;5.82;;
44842;SDS011;31884;52.538;13.820;2022-12-07T02:53:34;11.23;;;6.47;;
44842;SDS011;31884;52.538;13.820;2022-12-07T02:58:54;13.38;;;7.05;;
44842;SDS011;31884;52.538;13.820;2022-12-07T03:01:47;11.02;;;5.72;;
44842;SDS011;31884;52.538;13.820;2022-12-07T03:07:38;9.18;;;4.90;;
44842;SDS011;31884;52.538;13.820;2022-12-07T03:10:26;11.77;;;6.15;;
44842;SDS011;31884;52.538;13.820;2022-12-07T03:13:08;9.95;;;6.13;;
44842;SDS011;31884;52.538;13.820;2022-12-07T03:18:34;11.95;;;5.82;;
44842;SDS011;31884;52.538;13.820;2022-12-07T03:21:09;8.38;;;5.07;;
44842;SDS011;31884;52.538;13.820;2022-12-07T03:23:39;8.80;;;4.80;;
44842;SDS011;31884;52.538;13.820;2022-12-07T03:26:06;10.35;;;5.30;;
44842;SDS011;31884;52.538;13.820;2022-12-07T03:28:38;8.10;;;5.03;;
44842;SDS011;31884;52.538;13.820;2022-12-07T03:31:13;11.45;;;5.78;;
44842;SDS011;31884;52.538;13.820;2022-12-07T03:33:48;13.13;;;6.32;;
44842;SDS011;31884;52.538;13.820;2022-12-07T03:36:29;10.23;;;5.10;;
44842;SDS011;31884;52.538;13.820;2022-12-07T03:39:08;9.38;;;5.53;;
44842;SDS011;31884;52.538;13.820;2022-12-07T03:41:45;9.13;;;5.40;;
44842;SDS011;31884;52.538;13.820;2022-12-07T03:44:11;9.55;;;5.10;;
44842;SDS011;31884;52.538;13.820;2022-12-07T03:46:55;12.43;;;6.75;;
44842;SDS011;31884;52.538;13.820;2022-12-07T03:49:45;11.88;;;6.88;;
44842;SDS011;31884;52.538;13.820;2022-12-07T03:52:33;9.85;;;5.43;;
44842;SDS011;31884;52.538;13.820;2022-12-07T03:57:52;10.70;;;5.63;;
44842;SDS011;31884;52.538;13.820;2022-12-07T04:00:21;7.60;;;4.85;;
44842;SDS011;31884;52.538;13.820;2022-12-07T04:02:47;9.85;;;6.00;;
44842;SDS011;31884;52.538;13.820;2022-12-07T04:05:16;11.60;;;6.38;;
44842;SDS011;31884;52.538;13.820;2022-12-07T04:07:41;8.73;;;4.72;;
44842;SDS011;31884;52.538;13.820;2022-12-07T04:10:07;8.73;;;4.88;;
44842;SDS011;31884;52.538;13.820;2022-12-07T04:12:33;8.00;;;5.32;;
44842;SDS011;31884;52.538;13.820;2022-12-07T04:14:58;9.25;;;5.32;;
44842;SDS011;31884;52.538;13.820;2022-12-07T04:17:24;11.15;;;5.40;;
44842;SDS011;31884;52.538;13.820;2022-12-07T04:19:49;9.18;;;5.15;;
44842;SDS011;31884;52.538;13.820;2022-12-07T04:22:15;9.70;;;5.25;;
44842;SDS011;31884;52.538;13.820;2022-12-07T04:24:40;8.65;;;4.85;;
44842;SDS011;31884;52.538;13.820;2022-12-07T04:27:06;10.68;;;5.60;;
44842;SDS011;31884;52.538;13.820;2022-12-07T04:29:31;8.35;;;5.05;;
44842;SDS011;31884;52.538;13.820;2022-12-07T04:31:57;10.20;;;5.80;;
44842;SDS011;31884;52.538;13.820;2022-12-07T04:34:22;10.68;;;5.72;;
44842;SDS011;31884;52.538;13.820;2022-12-07T04:36:48;9.25;;;5.53;;
44842;SDS011;31884;52.538;13.820;2022-12-07T04:39:24;8.35;;;5.35;;
44842;SDS011;31884;52.538;13.820;2022-12-07T04:41:51;11.43;;;6.15;;
44842;SDS011;31884;52.538;13.820;2022-12-07T04:44:18;12.80;;;6.15;;
44842;SDS011;31884;52.538;13.820;2022-12-07T04:46:44;10.57;;;5.60;;
44842;SDS011;31884;52.538;13.820;2022-12-07T04:49:11;10.98;;;6.22;;
44842;SDS011;31884;52.538;13.820;2022-12-07T04:51:37;9.20;;;5.95;;
44842;SDS011;31884;52.538;13.820;2022-12-07T04:54:03;10.00;;;6.00;;
44842;SDS011;31884;52.538;13.820;2022-12-07T04:56:29;10.65;;;6.07;;
44842;SDS011;31884;52.538;13.820;2022-12-07T04:58:54;13.00;;;7.13;;
44842;SDS011;31884;52.538;13.820;2022-12-07T05:01:20;13.82;;;7.45;;
44842;SDS011;31884;52.538;13.820;2022-12-07T05:03:46;14.13;;;6.65;;
44842;SDS011;31884;52.538;13.820;2022-12-07T05:06:12;10.95;;;6.07;;
44842;SDS011;31884;52.538;13.820;2022-12-07T05:08:39;13.85;;;6.70;;
44842;SDS011;31884;52.538;13.820;2022-12-07T05:11:05;14.43;;;7.57;;
44842;SDS011;31884;52.538;13.820;2022-12-07T05:13:31;11.18;;;5.93;;
44842;SDS011;31884;52.538;13.820;2022-12-07T05:15:57;13.25;;;7.22;;
44842;SDS011;31884;52.538;13.820;2022-12-07T05:18:23;14.43;;;7.32;;
44842;SDS011;31884;52.538;13.820;2022-12-07T05:20:49;16.13;;;8.05;;
44842;SDS011;31884;52.538;13.820;2022-12-07T05:23:15;17.95;;;8.20;;
44842;SDS011;31884;52.538;13.820;2022-12-07T05:25:41;15.30;;;8.27;;
44842;SDS011;31884;52.538;13.820;2022-12-07T05:28:07;12.40;;;7.28;;
44842;SDS011;31884;52.538;13.820;2022-12-07T05:30:33;13.52;;;7.78;;
44842;SDS011;31884;52.538;13.820;2022-12-07T05:32:58;20.35;;;9.77;;
44842;SDS011;31884;52.538;13.820;2022-12-07T05:35:24;21.75;;;9.63;;
44842;SDS011;31884;52.538;13.820;2022-12-07T05:37:49;18.73;;;9.95;;
44842;SDS011;31884;52.538;13.820;2022-12-07T05:40:15;14.52;;;7.65;;
44842;SDS011;31884;52.538;13.820;2022-12-07T05:42:41;20.55;;;10.93;;
44842;SDS011;31884;52.538;13.820;2022-12-07T05:45:08;15.73;;;8.63;;
44842;SDS011;31884;52.538;13.820;2022-12-07T05:47:34;18.42;;;9.45;;
44842;SDS011;31884;52.538;13.820;2022-12-07T05:50:00;17.75;;;9.25;;
44842;SDS011;31884;52.538;13.820;2022-12-07T05:52:26;19.52;;;10.23;;
44842;SDS011;31884;52.538;13.820;2022-12-07T05:54:52;19.40;;;9.50;;
44842;SDS011;31884;52.538;13.820;2022-12-07T05:57:17;19.45;;;9.75;;
44842;SDS011;31884;52.538;13.820;2022-12-07T05:59:43;21.45;;;10.70;;
44842;SDS011;31884;52.538;13.820;2022-12-07T06:02:10;18.17;;;9.07;;
44842;SDS011;31884;52.538;13.820;2022-12-07T06:04:38;18.95;;;9.52;;
44842;SDS011;31884;52.538;13.820;2022-12-07T06:07:06;16.83;;;9.13;;
44842;SDS011;31884;52.538;13.820;2022-12-07T06:09:33;18.15;;;9.77;;
44842;SDS011;31884;52.538;13.820;2022-12-07T06:11:59;18.13;;;10.02;;
44842;SDS011;31884;52.538;13.820;2022-12-07T06:14:43;21.00;;;10.00;;
44842;SDS011;31884;52.538;13.820;2022-12-07T06:17:09;16.90;;;9.68;;
44842;SDS011;31884;52.538;13.820;2022-12-07T06:19:37;21.17;;;9.98;;
44842;SDS011;31884;52.538;13.820;2022-12-07T06:22:02;19.95;;;9.95;;
44842;SDS011;31884;52.538;13.820;2022-12-07T06:24:29;20.45;;;9.55;;
44842;SDS011;31884;52.538;13.820;2022-12-07T06:26:55;19.52;;;10.25;;
44842;SDS011;31884;52.538;13.820;2022-12-07T06:29:21;18.02;;;9.27;;
44842;SDS011;31884;52.538;13.820;2022-12-07T06:31:47;19.35;;;10.18;;
44842;SDS011;31884;52.538;13.820;2022-12-07T06:34:14;20.85;;;10.40;;
44842;SDS011;31884;52.538;13.820;2022-12-07T06:36:42;22.85;;;11.65;;
44842;SDS011;31884;52.538;13.820;2022-12-07T06:39:08;20.20;;;9.95;;
44842;SDS011;31884;52.538;13.820;2022-12-07T06:41:34;21.13;;;10.35;;
44842;SDS011;31884;52.538;13.820;2022-12-07T06:44:01;22.15;;;10.30;;
44842;SDS011;31884;52.538;13.820;2022-12-07T06:46:27;19.90;;;9.45;;
44842;SDS011;31884;52.538;13.820;2022-12-07T06:48:53;24.67;;;10.75;;
44842;SDS011;31884;52.538;13.820;2022-12-07T06:51:18;22.85;;;10.57;;
44842;SDS011;31884;52.538;13.820;2022-12-07T06:53:44;23.30;;;11.43;;
44842;SDS011;31884;52.538;13.820;2022-12-07T06:56:09;23.70;;;11.13;;
44842;SDS011;31884;52.538;13.820;2022-12-07T06:58:35;23.48;;;11.55;;
44842;SDS011;31884;52.538;13.820;2022-12-07T07:01:00;23.27;;;11.40;;
44842;SDS011;31884;52.538;13.820;2022-12-07T07:03:26;25.13;;;12.40;;
44842;SDS011;31884;52.538;13.820;2022-12-07T07:05:52;22.38;;;11.02;;
44842;SDS011;31884;52.538;13.820;2022-12-07T07:08:17;24.42;;;12.82;;
44842;SDS011;31884;52.538;13.820;2022-12-07T07:10:43;27.15;;;12.75;;
44842;SDS011;31884;52.538;13.820;2022-12-07T07:13:08;23.67;;;12.23;;
44842;SDS011;31884;52.538;13.820;2022-12-07T07:15:34;24.48;;;11.93;;
44842;SDS011;31884;52.538;13.820;2022-12-07T07:18:01;19.25;;;9.98;;
44842;SDS011;31884;52.538;13.820;2022-12-07T07:20:28;23.45;;;12.75;;
44842;SDS011;31884;52.538;13.820;2022-12-07T07:22:54;28.40;;;12.30;;
44842;SDS011;31884;52.538;13.820;2022-12-07T07:25:20;26.50;;;13.38;;
44842;SDS011;31884;52.538;13.820;2022-12-07T07:27:45;24.15;;;12.32;;
44842;SDS011;31884;52.538;13.820;2022-12-07T07:30:11;26.40;;;12.63;;
44842;SDS011;31884;52.538;13.820;2022-12-07T07:32:37;26.40;;;12.40;;
44842;SDS011;31884;52.538;13.820;2022-12-07T07:35:02;25.55;;;12.07;;
44842;SDS011;31884;52.538;13.820;2022-12-07T07:37:28;24.05;;;11.63;;
44842;SDS011;31884;52.538;13.820;2022-12-07T07:39:53;22.65;;;11.20;;
44842;SDS011;31884;52.538;13.820;2022-12-07T07:42:19;23.70;;;11.93;;
44842;SDS011;31884;52.538;13.820;2022-12-07T07:44:44;22.77;;;12.15;;
44842;SDS011;31884;52.538;13.820;2022-12-07T07:47:10;24.48;;;11.63;;
44842;SDS011;31884;52.538;13.820;2022-12-07T07:49:35;21.42;;;11.40;;
44842;SDS011;31884;52.538;13.820;2022-12-07T07:52:01;25.00;;;12.35;;
44842;SDS011;31884;52.538;13.820;2022-12-07T07:54:26;24.13;;;12.65;;
44842;SDS011;31884;52.538;13.820;2022-12-07T07:56:52;19.42;;;10.52;;
44842;SDS011;31884;52.538;13.820;2022-12-07T07:59:18;21.02;;;11.50;;
44842;SDS011;31884;52.538;13.820;2022-12-07T08:01:43;25.35;;;12.38;;
44842;SDS011;31884;52.538;13.820;2022-12-07T08:04:09;24.50;;;12.27;;
44842;SDS011;31884;52.538;13.820;2022-12-07T08:06:35;21.92;;;11.55;;
44842;SDS011;31884;52.538;13.820;2022-12-07T08:09:00;26.88;;;13.40;;
44842;SDS011;31884;52.538;13.820;2022-12-07T08:11:26;22.48;;;11.70;;
44842;SDS011;31884;52.538;13.820;2022-12-07T08:13:52;19.88;;;11.10;;
44842;SDS011;31884;52.538;13.820;2022-12-07T08:16:17;18.98;;;9.98;;
44842;SDS011;31884;52.538;13.820;2022-12-07T08:18:43;21.05;;;10.65;;
44842;SDS011;31884;52.538;13.820;2022-12-07T08:21:13;19.48;;;9.55;;
44842;SDS011;31884;52.538;13.820;2022-12-07T08:23:40;22.27;;;9.40;;
44842;SDS011;31884;52.538;13.820;2022-12-07T08:26:10;17.98;;;9.65;;
44842;SDS011;31884;52.538;13.820;2022-12-07T08:28:37;23.05;;;9.60;;
44842;SDS011;31884;52.538;13.820;2022-12-07T08:31:04;17.83;;;9.38;;
44842;SDS011;31884;52.538;13.820;2022-12-07T08:33:32;13.05;;;7.10;;
44842;SDS011;31884;52.538;13.820;2022-12-07T08:36:02;13.32;;;6.78;;
44842;SDS011;31884;52.538;13.820;2022-12-07T08:38:33;13.68;;;7.13;;
44842;SDS011;31884;52.538;13.820;2022-12-07T08:41:00;14.10;;;6.97;;
44842;SDS011;31884;52.538;13.820;2022-12-07T08:43:26;11.10;;;6.63;;
44842;SDS011;31884;52.538;13.820;2022-12-07T08:45:54;9.38;;;5.88;;
44842;SDS011;31884;52.538;13.820;2022-12-07T08:48:33;10.60;;;6.35;;
44842;SDS011;31884;52.538;13.820;2022-12-07T08:51:01;9.63;;;5.90;;
44842;SDS011;31884;52.538;13.820;2022-12-07T08:53:27;11.20;;;6.50;;
44842;SDS011;31884;52.538;13.820;2022-12-07T08:55:54;8.05;;;5.32;;
44842;SDS011;31884;52.538;13.820;2022-12-07T08:58:21;9.57;;;5.75;;
44842;SDS011;31884;52.538;13.820;2022-12-07T09:00:46;8.18;;;5.80;;
44842;SDS011;31884;52.538;13.820;2022-12-07T09:03:12;13.82;;;6.35;;
44842;SDS011;31884;52.538;13.820;2022-12-07T09:05:37;7.88;;;4.93;;
44842;SDS011;31884;52.538;13.820;2022-12-07T09:08:03;8.52;;;4.30;;
44842;SDS011;31884;52.538;13.820;2022-12-07T09:10:29;6.82;;;4.03;;
44842;SDS011;31884;52.538;13.820;2022-12-07T09:12:54;7.10;;;4.55;;
44842;SDS011;31884;52.538;13.820;2022-12-07T09:15:20;5.68;;;3.72;;
44842;SDS011;31884;52.538;13.820;2022-12-07T09:17:45;5.40;;;3.92;;
44842;SDS011;31884;52.538;13.820;2022-12-07T09:20:11;7.93;;;3.60;;
44842;SDS011;31884;52.538;13.820;2022-12-07T09:22:37;5.35;;;4.00;;
44842;SDS011;31884;52.538;13.820;2022-12-07T09:25:03;6.47;;;3.78;;
44842;SDS011;31884;52.538;13.820;2022-12-07T09:27:29;5.88;;;3.47;;
44842;SDS011;31884;52.538;13.820;2022-12-07T09:29:55;6.85;;;3.55;;
44842;SDS011;31884;52.538;13.820;2022-12-07T09:32:20;6.43;;;3.78;;
44842;SDS011;31884;52.538;13.820;2022-12-07T09:34:46;5.80;;;2.90;;
44842;SDS011;31884;52.538;13.820;2022-12-07T09:37:11;4.43;;;3.10;;
44842;SDS011;31884;52.538;13.820;2022-12-07T09:39:37;4.78;;;3.67;;
44842;SDS011;31884;52.538;13.820;2022-12-07T09:42:04;4.40;;;2.85;;
44842;SDS011;31884;52.538;13.820;2022-12-07T09:44:30;29.38;;;10.43;;
44842;SDS011;31884;52.538;13.820;2022-12-07T09:46:56;7.05;;;4.38;;
44842;SDS011;31884;52.538;13.820;2022-12-07T09:49:23;6.85;;;3.80;;
44842;SDS011;31884;52.538;13.820;2022-12-07T09:54:33;3.83;;;2.70;;
44842;SDS011;31884;52.538;13.820;2022-12-07T09:57:10;2.88;;;2.17;;
44842;SDS011;31884;52.538;13.820;2022-12-07T09:59:39;2.67;;;2.42;;
44842;SDS011;31884;52.538;13.820;2022-12-07T10:04:54;2.53;;;2.03;;
44842;SDS011;31884;52.538;13.820;2022-12-07T10:07:22;4.80;;;2.28;;
44842;SDS011;31884;52.538;13.820;2022-12-07T10:09:47;2.65;;;2.10;;
44842;SDS011;31884;52.538;13.820;2022-12-07T10:12:13;2.47;;;1.83;;
44842;SDS011;31884;52.538;13.820;2022-12-07T10:17:37;2.67;;;1.80;;
44842;SDS011;31884;52.538;13.820;2022-12-07T10:22:55;2.30;;;1.70;;
44842;SDS011;31884;52.538;13.820;2022-12-07T10:25:38;2.33;;;1.67;;
44842;SDS011;31884;52.538;13.820;2022-12-07T10:30:52;1.77;;;1.67;;
44842;SDS011;31884;52.538;13.820;2022-12-07T10:33:31;2.08;;;1.55;;
44842;SDS011;31884;52.538;13.820;2022-12-07T10:36:08;1.80;;;1.52;;
44842;SDS011;31884;52.538;13.820;2022-12-07T10:38:47;2.20;;;1.90;;
44842;SDS011;31884;52.538;13.820;2022-12-07T10:41:14;2.03;;;1.60;;
44842;SDS011;31884;52.538;13.820;2022-12-07T10:43:47;1.90;;;1.65;;
44842;SDS011;31884;52.538;13.820;2022-12-07T10:46:20;2.10;;;1.85;;
44842;SDS011;31884;52.538;13.820;2022-12-07T10:49:22;3.30;;;1.52;;
44842;SDS011;31884;52.538;13.820;2022-12-07T10:55:03;1.90;;;1.45;;
44842;SDS011;31884;52.538;13.820;2022-12-07T10:57:42;3.60;;;1.30;;
44842;SDS011;31884;52.538;13.820;2022-12-07T11:00:21;1.73;;;1.50;;
44842;SDS011;31884;52.538;13.820;2022-12-07T11:02:58;2.53;;;1.77;;
44842;SDS011;31884;52.538;13.820;2022-12-07T11:05:45;1.30;;;1.20;;
44842;SDS011;31884;52.538;13.820;2022-12-07T11:08:23;3.05;;;1.70;;
44842;SDS011;31884;52.538;13.820;2022-12-07T11:16:56;2.20;;;1.40;;
44842;SDS011;31884;52.538;13.820;2022-12-07T11:19:47;2.17;;;1.30;;
44842;SDS011;31884;52.538;13.820;2022-12-07T11:22:56;1.75;;;1.35;;
44842;SDS011;31884;52.538;13.820;2022-12-07T11:25:32;1.63;;;1.30;;
44842;SDS011;31884;52.538;13.820;2022-12-07T11:33:51;4.65;;;1.95;;
44842;SDS011;31884;52.538;13.820;2022-12-07T11:36:41;2.95;;;1.50;;
44842;SDS011;31884;52.538;13.820;2022-12-07T11:39:21;2.10;;;1.30;;
44842;SDS011;31884;52.538;13.820;2022-12-07T11:41:49;2.13;;;1.40;;
44842;SDS011;31884;52.538;13.820;2022-12-07T11:49:53;3.65;;;1.30;;
44842;SDS011;31884;52.538;13.820;2022-12-07T11:55:25;2.20;;;1.73;;
44842;SDS011;31884;52.538;13.820;2022-12-07T11:57:56;3.85;;;1.90;;
44842;SDS011;31884;52.538;13.820;2022-12-07T12:00:28;2.95;;;1.58;;
44842;SDS011;31884;52.538;13.820;2022-12-07T12:02:57;2.63;;;1.75;;
44842;SDS011;31884;52.538;13.820;2022-12-07T12:05:36;2.10;;;1.67;;
44842;SDS011;31884;52.538;13.820;2022-12-07T12:08:38;2.22;;;1.92;;
44842;SDS011;31884;52.538;13.820;2022-12-07T12:13:43;3.80;;;2.03;;
44842;SDS011;31884;52.538;13.820;2022-12-07T12:19:35;2.33;;;2.03;;
44842;SDS011;31884;52.538;13.820;2022-12-07T12:22:20;4.78;;;2.42;;
44842;SDS011;31884;52.538;13.820;2022-12-07T12:24:52;5.15;;;2.13;;
44842;SDS011;31884;52.538;13.820;2022-12-07T12:27:26;3.72;;;2.13;;
44842;SDS011;31884;52.538;13.820;2022-12-07T12:29:56;2.90;;;1.98;;
44842;SDS011;31884;52.538;13.820;2022-12-07T12:37:53;4.25;;;2.20;;
44842;SDS011;31884;52.538;13.820;2022-12-07T12:42:49;3.05;;;2.00;;
44842;SDS011;31884;52.538;13.820;2022-12-07T12:45:19;3.47;;;1.83;;
44842;SDS011;31884;52.538;13.820;2022-12-07T12:47:52;3.80;;;1.90;;
44842;SDS011;31884;52.538;13.820;2022-12-07T12:50:35;4.82;;;2.00;;
44842;SDS011;31884;52.538;13.820;2022-12-07T12:53:20;4.88;;;2.20;;
44842;SDS011;31884;52.538;13.820;2022-12-07T12:56:04;5.97;;;2.92;;
44842;SDS011;31884;52.538;13.820;2022-12-07T12:58:39;4.50;;;2.17;;
44842;SDS011;31884;52.538;13.820;2022-12-07T13:01:48;3.22;;;2.05;;
44842;SDS011;31884;52.538;13.820;2022-12-07T13:06:39;4.88;;;2.55;;
44842;SDS011;31884;52.538;13.820;2022-12-07T13:09:15;8.98;;;2.70;;
44842;SDS011;31884;52.538;13.820;2022-12-07T13:11:47;7.03;;;2.60;;
44842;SDS011;31884;52.538;13.820;2022-12-07T13:17:02;4.80;;;3.08;;
44842;SDS011;31884;52.538;13.820;2022-12-07T13:24:57;6.07;;;2.70;;
44842;SDS011;31884;52.538;13.820;2022-12-07T13:27:34;5.13;;;2.22;;
44842;SDS011;31884;52.538;13.820;2022-12-07T13:30:14;4.60;;;2.05;;
44842;SDS011;31884;52.538;13.820;2022-12-07T13:32:42;4.90;;;2.28;;
44842;SDS011;31884;52.538;13.820;2022-12-07T13:35:28;3.40;;;2.10;;
44842;SDS011;31884;52.538;13.820;2022-12-07T13:37:58;7.10;;;2.30;;
44842;SDS011;31884;52.538;13.820;2022-12-07T13:40:27;6.25;;;1.48;;
44842;SDS011;31884;52.538;13.820;2022-12-07T13:42:59;6.00;;;1.80;;
44842;SDS011;31884;52.538;13.820;2022-12-07T13:45:30;3.10;;;1.80;;
44842;SDS011;31884;52.538;13.820;2022-12-07T13:48:19;5.53;;;1.60;;
44842;SDS011;31884;52.538;13.820;2022-12-07T13:50:51;4.80;;;1.83;;
44842;SDS011;31884;52.538;13.820;2022-12-07T13:53:21;4.97;;;2.63;;
44842;SDS011;31884;52.538;13.820;2022-12-07T13:55:47;4.07;;;1.88;;
44842;SDS011;31884;52.538;13.820;2022-12-07T13:58:13;4.35;;;1.60;;
44842;SDS011;31884;52.538;13.820;2022-12-07T14:00:39;5.03;;;2.00;;
44842;SDS011;31884;52.538;13.820;2022-12-07T14:05:37;7.63;;;1.90;;
44842;SDS011;31884;52.538;13.820;2022-12-07T14:08:06;5.72;;;2.10;;
44842;SDS011;31884;52.538;13.820;2022-12-07T14:15:59;8.77;;;3.20;;
44842;SDS011;31884;52.538;13.820;2022-12-07T14:18:40;7.72;;;2.85;;
44842;SDS011;31884;52.538;13.820;2022-12-07T14:21:14;3.17;;;2.00;;
44842;SDS011;31884;52.538;13.820;2022-12-07T14:23:43;7.63;;;2.63;;
44842;SDS011;31884;52.538;13.820;2022-12-07T14:26:11;5.82;;;2.00;;
44842;SDS011;31884;52.538;13.820;2022-12-07T14:28:41;8.05;;;1.83;;
44842;SDS011;31884;52.538;13.820;2022-12-07T14:31:15;6.65;;;2.13;;
44842;SDS011;31884;52.538;13.820;2022-12-07T14:33:43;5.90;;;1.77;;
44842;SDS011;31884;52.538;13.820;2022-12-07T14:36:09;6.72;;;2.70;;
44842;SDS011;31884;52.538;13.820;2022-12-07T14:38:36;6.75;;;1.98;;
44842;SDS011;31884;52.538;13.820;2022-12-07T14:41:02;8.38;;;1.92;;
44842;SDS011;31884;52.538;13.820;2022-12-07T14:43:47;5.72;;;1.90;;
44842;SDS011;31884;52.538;13.820;2022-12-07T14:46:13;5.22;;;1.70;;
44842;SDS011;31884;52.538;13.820;2022-12-07T14:48:39;6.93;;;1.65;;
44842;SDS011;31884;52.538;13.820;2022-12-07T14:51:05;3.30;;;1.30;;
44842;SDS011;31884;52.538;13.820;2022-12-07T14:53:35;5.63;;;1.50;;
44842;SDS011;31884;52.538;13.820;2022-12-07T14:56:04;5.47;;;1.33;;
44842;SDS011;31884;52.538;13.820;2022-12-07T14:58:33;3.47;;;1.40;;
44842;SDS011;31884;52.538;13.820;2022-12-07T15:00:58;5.47;;;1.70;;
44842;SDS011;31884;52.538;13.820;2022-12-07T15:03:24;5.53;;;2.45;;
44842;SDS011;31884;52.538;13.820;2022-12-07T15:05:50;4.05;;;1.98;;
44842;SDS011;31884;52.538;13.820;2022-12-07T15:08:16;6.75;;;1.60;;
44842;SDS011;31884;52.538;13.820;2022-12-07T15:10:41;3.20;;;1.40;;
44842;SDS011;31884;52.538;13.820;2022-12-07T15:13:07;8.13;;;1.60;;
44842;SDS011;31884;52.538;13.820;2022-12-07T15:15:52;3.00;;;1.50;;
44842;SDS011;31884;52.538;13.820;2022-12-07T15:18:19;3.03;;;1.02;;
44842;SDS011;31884;52.538;13.820;2022-12-07T15:20:45;7.53;;;1.42;;
44842;SDS011;31884;52.538;13.820;2022-12-07T15:23:11;2.53;;;1.45;;
44842;SDS011;31884;52.538;13.820;2022-12-07T15:25:41;5.20;;;1.42;;
44842;SDS011;31884;52.538;13.820;2022-12-07T15:28:07;2.67;;;1.10;;
44842;SDS011;31884;52.538;13.820;2022-12-07T15:30:32;7.45;;;1.60;;
44842;SDS011;31884;52.538;13.820;2022-12-07T15:32:58;3.13;;;1.33;;
44842;SDS011;31884;52.538;13.820;2022-12-07T15:35:23;1.65;;;1.38;;
44842;SDS011;31884;52.538;13.820;2022-12-07T15:37:49;6.50;;;1.98;;
44842;SDS011;31884;52.538;13.820;2022-12-07T15:40:14;5.88;;;2.00;;
44842;SDS011;31884;52.538;13.820;2022-12-07T15:42:40;5.07;;;1.73;;
44842;SDS011;31884;52.538;13.820;2022-12-07T15:45:06;3.17;;;1.60;;
44842;SDS011;31884;52.538;13.820;2022-12-07T15:47:35;7.40;;;1.95;;
44842;SDS011;31884;52.538;13.820;2022-12-07T15:50:06;4.03;;;1.65;;
44842;SDS011;31884;52.538;13.820;2022-12-07T15:52:34;3.90;;;1.50;;
44842;SDS011;31884;52.538;13.820;2022-12-07T15:55:00;5.30;;;1.92;;
44842;SDS011;31884;52.538;13.820;2022-12-07T15:57:28;4.85;;;1.98;;
44842;SDS011;31884;52.538;13.820;2022-12-07T15:59:54;10.02;;;2.13;;
44842;SDS011;31884;52.538;13.820;2022-12-07T16:02:19;6.05;;;2.13;;
44842;SDS011;31884;52.538;13.820;2022-12-07T16:04:45;5.70;;;2.00;;
44842;SDS011;31884;52.538;13.820;2022-12-07T16:07:11;4.70;;;2.40;;
44842;SDS011;31884;52.538;13.820;2022-12-07T16:09:39;3.00;;;2.28;;
44842;SDS011;31884;52.538;13.820;2022-12-07T16:12:04;5.65;;;3.05;;
44842;SDS011;31884;52.538;13.820;2022-12-07T16:14:30;5.35;;;1.98;;